sensor_id;sensor_type;location;lat;lon;timestamp;temperature;humidity
43089;DHT22;28709;52.030;5.652;2022-08-25T00:01:01;23.50;97.10
43089;DHT22;28709;52.030;5.652;2022-08-25T00:03:27;23.50;97.10
43089;DHT22;28709;52.030;5.652;2022-08-25T00:05:52;23.50;97.10
43089;DHT22;28709;52.030;5.652;2022-08-25T00:08:18;23.40;97.10
43089;DHT22;28709;52.030;5.652;2022-08-25T00:10:43;23.40;97.20
43089;DHT22;28709;52.030;5.652;2022-08-25T00:13:09;23.40;97.20
43089;DHT22;28709;52.030;5.652;2022-08-25T00:15:35;23.40;97.30
43089;DHT22;28709;52.030;5.652;2022-08-25T00:18:03;23.30;97.30
43089;DHT22;28709;52.030;5.652;2022-08-25T00:20:30;23.30;97.30
43089;DHT22;28709;52.030;5.652;2022-08-25T00:22:56;23.30;97.30
43089;DHT22;28709;52.030;5.652;2022-08-25T00:25:22;23.30;97.40
43089;DHT22;28709;52.030;5.652;2022-08-25T00:27:50;23.30;97.40
43089;DHT22;28709;52.030;5.652;2022-08-25T00:30:16;23.20;97.40
43089;DHT22;28709;52.030;5.652;2022-08-25T00:32:43;23.20;97.40
43089;DHT22;28709;52.030;5.652;2022-08-25T00:35:09;23.20;97.50
43089;DHT22;28709;52.030;5.652;2022-08-25T00:37:35;23.10;97.50
43089;DHT22;28709;52.030;5.652;2022-08-25T00:40:02;23.10;97.50
43089;DHT22;28709;52.030;5.652;2022-08-25T00:42:28;23.10;97.50
43089;DHT22;28709;52.030;5.652;2022-08-25T00:44:53;23.10;97.50
43089;DHT22;28709;52.030;5.652;2022-08-25T00:47:19;23.00;97.50
43089;DHT22;28709;52.030;5.652;2022-08-25T00:49:54;23.00;97.50
43089;DHT22;28709;52.030;5.652;2022-08-25T00:52:37;23.00;97.40
43089;DHT22;28709;52.030;5.652;2022-08-25T00:55:13;23.00;97.30
43089;DHT22;28709;52.030;5.652;2022-08-25T00:57:45;23.00;97.20
43089;DHT22;28709;52.030;5.652;2022-08-25T01:00:18;23.10;97.10
43089;DHT22;28709;52.030;5.652;2022-08-25T01:02:45;23.10;97.00
43089;DHT22;28709;52.030;5.652;2022-08-25T01:05:11;23.10;96.90
43089;DHT22;28709;52.030;5.652;2022-08-25T01:07:40;23.10;96.90
43089;DHT22;28709;52.030;5.652;2022-08-25T01:10:07;23.00;96.80
43089;DHT22;28709;52.030;5.652;2022-08-25T01:12:34;23.00;97.00
43089;DHT22;28709;52.030;5.652;2022-08-25T01:15:02;23.00;96.70
43089;DHT22;28709;52.030;5.652;2022-08-25T01:17:48;23.00;96.60
43089;DHT22;28709;52.030;5.652;2022-08-25T01:20:16;23.00;96.50
43089;DHT22;28709;52.030;5.652;2022-08-25T01:22:43;23.00;96.50
43089;DHT22;28709;52.030;5.652;2022-08-25T01:28:03;23.00;96.30
43089;DHT22;28709;52.030;5.652;2022-08-25T01:30:29;23.00;96.20
43089;DHT22;28709;52.030;5.652;2022-08-25T01:32:54;23.00;96.20
43089;DHT22;28709;52.030;5.652;2022-08-25T01:35:20;23.00;96.10
43089;DHT22;28709;52.030;5.652;2022-08-25T01:37:46;23.00;96.10
43089;DHT22;28709;52.030;5.652;2022-08-25T01:40:12;23.00;96.00
43089;DHT22;28709;52.030;5.652;2022-08-25T01:43:11;23.00;95.90
43089;DHT22;28709;52.030;5.652;2022-08-25T01:45:40;23.00;95.80
43089;DHT22;28709;52.030;5.652;2022-08-25T01:48:06;23.00;95.70
43089;DHT22;28709;52.030;5.652;2022-08-25T01:50:33;23.10;95.30
43089;DHT22;28709;52.030;5.652;2022-08-25T01:55:25;23.10;94.80
43089;DHT22;28709;52.030;5.652;2022-08-25T01:57:51;23.10;94.60
43089;DHT22;28709;52.030;5.652;2022-08-25T02:00:18;23.10;94.40
43089;DHT22;28709;52.030;5.652;2022-08-25T02:02:44;23.10;94.30
43089;DHT22;28709;52.030;5.652;2022-08-25T02:05:10;23.10;94.10
43089;DHT22;28709;52.030;5.652;2022-08-25T02:07:38;23.10;94.10
43089;DHT22;28709;52.030;5.652;2022-08-25T02:10:05;23.10;93.90
43089;DHT22;28709;52.030;5.652;2022-08-25T02:12:32;23.20;93.90
43089;DHT22;28709;52.030;5.652;2022-08-25T02:14:59;23.20;93.80
43089;DHT22;28709;52.030;5.652;2022-08-25T02:17:27;23.20;94.00
43089;DHT22;28709;52.030;5.652;2022-08-25T02:19:53;23.20;93.70
43089;DHT22;28709;52.030;5.652;2022-08-25T02:22:24;23.20;93.70
43089;DHT22;28709;52.030;5.652;2022-08-25T02:24:50;23.30;93.70
43089;DHT22;28709;52.030;5.652;2022-08-25T02:27:16;23.20;93.50
43089;DHT22;28709;52.030;5.652;2022-08-25T02:29:41;23.30;93.30
43089;DHT22;28709;52.030;5.652;2022-08-25T02:32:07;23.30;93.00
43089;DHT22;28709;52.030;5.652;2022-08-25T02:34:33;23.40;92.90
43089;DHT22;28709;52.030;5.652;2022-08-25T02:37:00;23.40;92.30
43089;DHT22;28709;52.030;5.652;2022-08-25T02:39:26;23.50;91.90
43089;DHT22;28709;52.030;5.652;2022-08-25T02:41:52;23.60;91.50
43089;DHT22;28709;52.030;5.652;2022-08-25T02:44:18;23.70;90.90
43089;DHT22;28709;52.030;5.652;2022-08-25T02:46:44;23.70;90.60
43089;DHT22;28709;52.030;5.652;2022-08-25T02:49:09;23.80;90.30
43089;DHT22;28709;52.030;5.652;2022-08-25T02:51:35;23.90;90.30
43089;DHT22;28709;52.030;5.652;2022-08-25T02:54:03;23.90;90.00
43089;DHT22;28709;52.030;5.652;2022-08-25T02:56:30;23.90;89.80
43089;DHT22;28709;52.030;5.652;2022-08-25T02:58:57;23.90;89.70
43089;DHT22;28709;52.030;5.652;2022-08-25T03:01:23;23.90;89.80
43089;DHT22;28709;52.030;5.652;2022-08-25T03:03:50;23.90;89.30
43089;DHT22;28709;52.030;5.652;2022-08-25T03:06:18;23.90;89.10
43089;DHT22;28709;52.030;5.652;2022-08-25T03:08:45;23.90;88.60
43089;DHT22;28709;52.030;5.652;2022-08-25T03:11:11;23.90;88.50
43089;DHT22;28709;52.030;5.652;2022-08-25T03:13:37;23.90;88.70
43089;DHT22;28709;52.030;5.652;2022-08-25T03:16:04;23.90;88.00
43089;DHT22;28709;52.030;5.652;2022-08-25T03:18:30;23.80;88.00
43089;DHT22;28709;52.030;5.652;2022-08-25T03:20:56;23.80;87.90
43089;DHT22;28709;52.030;5.652;2022-08-25T03:23:22;23.80;88.00
43089;DHT22;28709;52.030;5.652;2022-08-25T03:25:47;23.70;87.80
43089;DHT22;28709;52.030;5.652;2022-08-25T03:28:31;23.70;87.80
43089;DHT22;28709;52.030;5.652;2022-08-25T03:31:00;23.70;87.70
43089;DHT22;28709;52.030;5.652;2022-08-25T03:33:28;23.60;87.60
43089;DHT22;28709;52.030;5.652;2022-08-25T03:35:54;23.60;87.60
43089;DHT22;28709;52.030;5.652;2022-08-25T03:38:20;23.60;87.20
43089;DHT22;28709;52.030;5.652;2022-08-25T03:40:47;23.50;87.00
43089;DHT22;28709;52.030;5.652;2022-08-25T03:43:13;23.50;87.10
43089;DHT22;28709;52.030;5.652;2022-08-25T03:45:40;23.50;87.00
43089;DHT22;28709;52.030;5.652;2022-08-25T03:48:06;23.50;87.10
43089;DHT22;28709;52.030;5.652;2022-08-25T03:50:32;23.40;87.10
43089;DHT22;28709;52.030;5.652;2022-08-25T03:52:57;23.40;87.10
43089;DHT22;28709;52.030;5.652;2022-08-25T03:55:24;23.30;87.00
43089;DHT22;28709;52.030;5.652;2022-08-25T03:57:51;23.30;87.10
43089;DHT22;28709;52.030;5.652;2022-08-25T04:00:18;23.30;87.20
43089;DHT22;28709;52.030;5.652;2022-08-25T04:02:46;23.30;87.00
43089;DHT22;28709;52.030;5.652;2022-08-25T04:05:19;23.20;87.10
43089;DHT22;28709;52.030;5.652;2022-08-25T04:07:45;23.20;87.20
43089;DHT22;28709;52.030;5.652;2022-08-25T04:10:11;23.10;87.10
43089;DHT22;28709;52.030;5.652;2022-08-25T04:12:37;23.20;87.10
43089;DHT22;28709;52.030;5.652;2022-08-25T04:15:05;23.10;87.30
43089;DHT22;28709;52.030;5.652;2022-08-25T04:17:32;23.10;87.20
43089;DHT22;28709;52.030;5.652;2022-08-25T04:19:58;23.00;87.10
43089;DHT22;28709;52.030;5.652;2022-08-25T04:22:24;23.00;87.20
43089;DHT22;28709;52.030;5.652;2022-08-25T04:24:49;23.00;87.40
43089;DHT22;28709;52.030;5.652;2022-08-25T04:27:16;23.00;87.50
43089;DHT22;28709;52.030;5.652;2022-08-25T04:29:42;22.90;87.60
43089;DHT22;28709;52.030;5.652;2022-08-25T04:32:07;22.90;87.70
43089;DHT22;28709;52.030;5.652;2022-08-25T04:34:33;22.90;87.90
43089;DHT22;28709;52.030;5.652;2022-08-25T04:37:00;22.80;87.90
43089;DHT22;28709;52.030;5.652;2022-08-25T04:39:27;22.80;87.80
43089;DHT22;28709;52.030;5.652;2022-08-25T04:41:53;22.80;87.80
43089;DHT22;28709;52.030;5.652;2022-08-25T04:44:19;22.80;87.80
43089;DHT22;28709;52.030;5.652;2022-08-25T04:46:45;22.80;87.80
43089;DHT22;28709;52.030;5.652;2022-08-25T04:49:11;22.80;87.90
43089;DHT22;28709;52.030;5.652;2022-08-25T04:51:39;22.70;87.90
43089;DHT22;28709;52.030;5.652;2022-08-25T04:54:08;22.70;87.90
43089;DHT22;28709;52.030;5.652;2022-08-25T04:56:35;22.70;87.80
43089;DHT22;28709;52.030;5.652;2022-08-25T04:59:02;22.70;87.70
43089;DHT22;28709;52.030;5.652;2022-08-25T05:01:28;22.70;87.70
43089;DHT22;28709;52.030;5.652;2022-08-25T05:03:58;22.80;87.70
43089;DHT22;28709;52.030;5.652;2022-08-25T05:06:26;22.70;87.80
43089;DHT22;28709;52.030;5.652;2022-08-25T05:08:53;22.70;87.70
43089;DHT22;28709;52.030;5.652;2022-08-25T05:11:19;22.70;87.70
43089;DHT22;28709;52.030;5.652;2022-08-25T05:13:47;22.70;87.70
43089;DHT22;28709;52.030;5.652;2022-08-25T05:16:13;22.70;87.80
43089;DHT22;28709;52.030;5.652;2022-08-25T05:18:40;22.70;87.80
43089;DHT22;28709;52.030;5.652;2022-08-25T05:21:12;22.70;87.80
43089;DHT22;28709;52.030;5.652;2022-08-25T05:23:39;22.70;87.80
43089;DHT22;28709;52.030;5.652;2022-08-25T05:26:11;22.80;87.80
43089;DHT22;28709;52.030;5.652;2022-08-25T05:28:39;22.80;87.70
43089;DHT22;28709;52.030;5.652;2022-08-25T05:31:10;22.80;87.60
43089;DHT22;28709;52.030;5.652;2022-08-25T05:33:38;22.80;87.60
43089;DHT22;28709;52.030;5.652;2022-08-25T05:36:06;22.80;87.50
43089;DHT22;28709;52.030;5.652;2022-08-25T05:38:32;22.90;87.70
43089;DHT22;28709;52.030;5.652;2022-08-25T05:41:04;22.90;87.70
43089;DHT22;28709;52.030;5.652;2022-08-25T05:43:31;22.90;87.50
43089;DHT22;28709;52.030;5.652;2022-08-25T05:45:57;22.90;87.50
43089;DHT22;28709;52.030;5.652;2022-08-25T05:48:24;23.00;87.40
43089;DHT22;28709;52.030;5.652;2022-08-25T05:50:56;23.10;87.40
43089;DHT22;28709;52.030;5.652;2022-08-25T05:53:24;23.10;87.20
43089;DHT22;28709;52.030;5.652;2022-08-25T05:55:52;23.20;87.10
43089;DHT22;28709;52.030;5.652;2022-08-25T05:58:19;23.30;87.00
43089;DHT22;28709;52.030;5.652;2022-08-25T06:00:45;23.40;87.00
43089;DHT22;28709;52.030;5.652;2022-08-25T06:03:11;23.40;86.60
43089;DHT22;28709;52.030;5.652;2022-08-25T06:05:37;23.60;86.50
43089;DHT22;28709;52.030;5.652;2022-08-25T06:08:03;23.60;86.40
43089;DHT22;28709;52.030;5.652;2022-08-25T06:10:29;23.70;86.10
43089;DHT22;28709;52.030;5.652;2022-08-25T06:12:55;23.80;85.70
43089;DHT22;28709;52.030;5.652;2022-08-25T06:15:22;23.90;85.60
43089;DHT22;28709;52.030;5.652;2022-08-25T06:17:49;24.00;85.60
43089;DHT22;28709;52.030;5.652;2022-08-25T06:20:19;24.00;85.50
43089;DHT22;28709;52.030;5.652;2022-08-25T06:22:45;24.10;85.20
43089;DHT22;28709;52.030;5.652;2022-08-25T06:25:12;24.20;84.80
43089;DHT22;28709;52.030;5.652;2022-08-25T06:27:39;24.20;84.40
43089;DHT22;28709;52.030;5.652;2022-08-25T06:30:06;24.30;84.20
43089;DHT22;28709;52.030;5.652;2022-08-25T06:39:03;24.60;83.70
43089;DHT22;28709;52.030;5.652;2022-08-25T06:41:29;24.70;83.30
43089;DHT22;28709;52.030;5.652;2022-08-25T06:43:54;24.80;83.20
43089;DHT22;28709;52.030;5.652;2022-08-25T06:46:23;24.90;83.60
43089;DHT22;28709;52.030;5.652;2022-08-25T06:48:51;25.00;83.50
43089;DHT22;28709;52.030;5.652;2022-08-25T06:51:18;25.20;82.90
43089;DHT22;28709;52.030;5.652;2022-08-25T06:53:46;25.40;82.40
43089;DHT22;28709;52.030;5.652;2022-08-25T06:56:12;25.50;82.00
43089;DHT22;28709;52.030;5.652;2022-08-25T06:58:38;25.60;81.20
43089;DHT22;28709;52.030;5.652;2022-08-25T07:03:35;25.80;80.70
43089;DHT22;28709;52.030;5.652;2022-08-25T07:06:01;25.90;80.80
43089;DHT22;28709;52.030;5.652;2022-08-25T07:08:27;26.00;80.10
43089;DHT22;28709;52.030;5.652;2022-08-25T07:10:52;26.10;79.40
43089;DHT22;28709;52.030;5.652;2022-08-25T07:13:18;26.30;79.30
43089;DHT22;28709;52.030;5.652;2022-08-25T07:15:44;26.30;78.70
43089;DHT22;28709;52.030;5.652;2022-08-25T07:18:10;26.50;79.10
43089;DHT22;28709;52.030;5.652;2022-08-25T07:20:39;26.60;78.80
43089;DHT22;28709;52.030;5.652;2022-08-25T07:23:06;26.70;78.80
43089;DHT22;28709;52.030;5.652;2022-08-25T07:25:33;26.90;78.30
43089;DHT22;28709;52.030;5.652;2022-08-25T07:27:59;27.00;78.20
43089;DHT22;28709;52.030;5.652;2022-08-25T07:30:25;27.10;78.10
43089;DHT22;28709;52.030;5.652;2022-08-25T07:32:50;27.30;78.20
43089;DHT22;28709;52.030;5.652;2022-08-25T07:35:18;27.40;76.60
43089;DHT22;28709;52.030;5.652;2022-08-25T07:37:47;27.40;76.80
43089;DHT22;28709;52.030;5.652;2022-08-25T07:40:22;27.60;76.80
43089;DHT22;28709;52.030;5.652;2022-08-25T07:42:50;27.70;76.50
43089;DHT22;28709;52.030;5.652;2022-08-25T07:45:17;27.80;76.20
43089;DHT22;28709;52.030;5.652;2022-08-25T07:47:43;27.90;75.50
43089;DHT22;28709;52.030;5.652;2022-08-25T07:50:11;28.00;75.10
43089;DHT22;28709;52.030;5.652;2022-08-25T07:52:38;27.90;74.80
43089;DHT22;28709;52.030;5.652;2022-08-25T07:55:04;27.90;75.30
43089;DHT22;28709;52.030;5.652;2022-08-25T07:57:29;28.00;75.60
43089;DHT22;28709;52.030;5.652;2022-08-25T07:59:56;28.20;75.70
43089;DHT22;28709;52.030;5.652;2022-08-25T08:02:23;28.40;75.60
43089;DHT22;28709;52.030;5.652;2022-08-25T08:04:50;28.50;75.10
43089;DHT22;28709;52.030;5.652;2022-08-25T08:07:24;28.70;74.10
43089;DHT22;28709;52.030;5.652;2022-08-25T08:09:51;28.70;73.60
43089;DHT22;28709;52.030;5.652;2022-08-25T08:12:17;28.70;73.60
43089;DHT22;28709;52.030;5.652;2022-08-25T08:14:43;28.80;73.80
43089;DHT22;28709;52.030;5.652;2022-08-25T08:17:10;28.80;73.30
43089;DHT22;28709;52.030;5.652;2022-08-25T08:19:36;29.00;73.50
43089;DHT22;28709;52.030;5.652;2022-08-25T08:22:03;29.10;73.60
43089;DHT22;28709;52.030;5.652;2022-08-25T08:24:31;29.40;73.50
43089;DHT22;28709;52.030;5.652;2022-08-25T08:26:57;29.60;73.50
43089;DHT22;28709;52.030;5.652;2022-08-25T08:29:23;29.80;71.70
43089;DHT22;28709;52.030;5.652;2022-08-25T08:31:49;29.90;71.70
43089;DHT22;28709;52.030;5.652;2022-08-25T08:34:15;29.90;71.20
43089;DHT22;28709;52.030;5.652;2022-08-25T08:36:40;29.90;71.10
43089;DHT22;28709;52.030;5.652;2022-08-25T08:39:06;30.10;71.40
43089;DHT22;28709;52.030;5.652;2022-08-25T08:50:38;30.90;71.20
43089;DHT22;28709;52.030;5.652;2022-08-25T08:53:17;31.00;70.30
43089;DHT22;28709;52.030;5.652;2022-08-25T08:55:56;31.10;70.20
43089;DHT22;28709;52.030;5.652;2022-08-25T08:58:29;31.30;69.40
43089;DHT22;28709;52.030;5.652;2022-08-25T09:01:00;31.30;69.70
43089;DHT22;28709;52.030;5.652;2022-08-25T09:03:46;31.50;70.10
43089;DHT22;28709;52.030;5.652;2022-08-25T09:06:24;31.70;69.30
43089;DHT22;28709;52.030;5.652;2022-08-25T09:08:54;32.00;69.00
43089;DHT22;28709;52.030;5.652;2022-08-25T09:11:22;32.20;67.00
43089;DHT22;28709;52.030;5.652;2022-08-25T09:20:15;32.80;67.00
43089;DHT22;28709;52.030;5.652;2022-08-25T09:25:23;33.00;64.90
43089;DHT22;28709;52.030;5.652;2022-08-25T09:30:27;33.20;64.40
43089;DHT22;28709;52.030;5.652;2022-08-25T09:32:57;33.20;63.90
43089;DHT22;28709;52.030;5.652;2022-08-25T09:35:31;33.30;63.30
43089;DHT22;28709;52.030;5.652;2022-08-25T09:38:08;33.40;63.70
43089;DHT22;28709;52.030;5.652;2022-08-25T09:40:37;33.50;63.60
43089;DHT22;28709;52.030;5.652;2022-08-25T09:43:39;33.70;63.90
43089;DHT22;28709;52.030;5.652;2022-08-25T09:46:28;34.00;62.60
43089;DHT22;28709;52.030;5.652;2022-08-25T09:49:10;34.30;62.70
43089;DHT22;28709;52.030;5.652;2022-08-25T09:51:38;34.70;61.60
43089;DHT22;28709;52.030;5.652;2022-08-25T09:56:57;34.90;59.20
43089;DHT22;28709;52.030;5.652;2022-08-25T09:59:25;34.70;58.50
43089;DHT22;28709;52.030;5.652;2022-08-25T10:01:59;34.60;59.10
43089;DHT22;28709;52.030;5.652;2022-08-25T10:04:27;34.50;58.70
43089;DHT22;28709;52.030;5.652;2022-08-25T10:06:53;34.60;58.50
43089;DHT22;28709;52.030;5.652;2022-08-25T10:10:00;34.80;58.80
43089;DHT22;28709;52.030;5.652;2022-08-25T10:12:28;34.90;57.20
43089;DHT22;28709;52.030;5.652;2022-08-25T10:14:55;34.70;56.70
43089;DHT22;28709;52.030;5.652;2022-08-25T10:17:27;34.60;55.80
43089;DHT22;28709;52.030;5.652;2022-08-25T10:22:37;34.10;55.70
43089;DHT22;28709;52.030;5.652;2022-08-25T10:25:05;34.00;54.20
43089;DHT22;28709;52.030;5.652;2022-08-25T10:47:19;34.90;53.60
43089;DHT22;28709;52.030;5.652;2022-08-25T10:49:53;34.90;54.00
43089;DHT22;28709;52.030;5.652;2022-08-25T10:52:22;35.00;54.30
43089;DHT22;28709;52.030;5.652;2022-08-25T10:55:00;35.10;52.80
43089;DHT22;28709;52.030;5.652;2022-08-25T11:00:10;35.10;53.40
43089;DHT22;28709;52.030;5.652;2022-08-25T11:05:51;35.40;54.50
43089;DHT22;28709;52.030;5.652;2022-08-25T11:11:16;35.30;54.60
43089;DHT22;28709;52.030;5.652;2022-08-25T11:16:40;35.30;54.30
43089;DHT22;28709;52.030;5.652;2022-08-25T11:19:21;35.30;54.30
43089;DHT22;28709;52.030;5.652;2022-08-25T11:21:55;35.20;54.30
43089;DHT22;28709;52.030;5.652;2022-08-25T11:24:35;35.20;55.10
43089;DHT22;28709;52.030;5.652;2022-08-25T11:27:11;35.50;54.90
43089;DHT22;28709;52.030;5.652;2022-08-25T11:29:41;35.50;53.70
43089;DHT22;28709;52.030;5.652;2022-08-25T11:32:09;35.40;53.60
43089;DHT22;28709;52.030;5.652;2022-08-25T11:34:36;35.40;53.60
43089;DHT22;28709;52.030;5.652;2022-08-25T11:37:12;35.50;54.20
43089;DHT22;28709;52.030;5.652;2022-08-25T11:40:10;35.50;52.40
43089;DHT22;28709;52.030;5.652;2022-08-25T11:43:03;35.40;52.60
43089;DHT22;28709;52.030;5.652;2022-08-25T11:51:05;35.10;51.70
43089;DHT22;28709;52.030;5.652;2022-08-25T11:53:39;35.00;51.90
43089;DHT22;28709;52.030;5.652;2022-08-25T11:56:30;35.00;52.10
43089;DHT22;28709;52.030;5.652;2022-08-25T11:58:56;35.10;52.50
43089;DHT22;28709;52.030;5.652;2022-08-25T12:04:43;35.40;52.20
43089;DHT22;28709;52.030;5.652;2022-08-25T12:09:32;35.20;51.70
43089;DHT22;28709;52.030;5.652;2022-08-25T12:11:58;35.20;51.50
43089;DHT22;28709;52.030;5.652;2022-08-25T12:27:35;35.20;52.00
43089;DHT22;28709;52.030;5.652;2022-08-25T12:30:26;35.30;51.10
43089;DHT22;28709;52.030;5.652;2022-08-25T12:36:00;35.30;50.40
43089;DHT22;28709;52.030;5.652;2022-08-25T12:38:48;35.20;51.20
43089;DHT22;28709;52.030;5.652;2022-08-25T12:41:18;35.30;51.80
43089;DHT22;28709;52.030;5.652;2022-08-25T12:43:48;35.30;51.80
43089;DHT22;28709;52.030;5.652;2022-08-25T12:48:56;35.20;51.50
43089;DHT22;28709;52.030;5.652;2022-08-25T12:54:21;34.70;50.80
43089;DHT22;28709;52.030;5.652;2022-08-25T12:56:59;34.50;51.30
43089;DHT22;28709;52.030;5.652;2022-08-25T12:59:36;34.50;51.40
43089;DHT22;28709;52.030;5.652;2022-08-25T13:15:41;34.40;51.10
43089;DHT22;28709;52.030;5.652;2022-08-25T13:20:45;34.50;51.70
43089;DHT22;28709;52.030;5.652;2022-08-25T13:23:11;34.50;51.40
43089;DHT22;28709;52.030;5.652;2022-08-25T13:25:45;34.60;51.70
43089;DHT22;28709;52.030;5.652;2022-08-25T13:28:32;34.70;52.10
43089;DHT22;28709;52.030;5.652;2022-08-25T13:31:02;34.80;52.20
43089;DHT22;28709;52.030;5.652;2022-08-25T13:33:28;34.70;51.30
43089;DHT22;28709;52.030;5.652;2022-08-25T13:35:56;34.50;51.10
43089;DHT22;28709;52.030;5.652;2022-08-25T13:38:42;34.40;51.50
43089;DHT22;28709;52.030;5.652;2022-08-25T13:41:08;34.50;52.10
43089;DHT22;28709;52.030;5.652;2022-08-25T13:43:36;34.50;51.80
43089;DHT22;28709;52.030;5.652;2022-08-25T13:46:02;34.50;51.60
43089;DHT22;28709;52.030;5.652;2022-08-25T13:48:35;34.60;52.20
43089;DHT22;28709;52.030;5.652;2022-08-25T13:51:20;34.60;51.80
43089;DHT22;28709;52.030;5.652;2022-08-25T13:53:59;34.50;51.20
43089;DHT22;28709;52.030;5.652;2022-08-25T13:56:29;34.40;51.60
43089;DHT22;28709;52.030;5.652;2022-08-25T13:58:57;34.30;51.40
43089;DHT22;28709;52.030;5.652;2022-08-25T14:01:44;34.10;51.30
43089;DHT22;28709;52.030;5.652;2022-08-25T14:12:35;33.70;52.20
43089;DHT22;28709;52.030;5.652;2022-08-25T14:17:36;33.80;51.60
43089;DHT22;28709;52.030;5.652;2022-08-25T14:20:04;33.70;51.60
43089;DHT22;28709;52.030;5.652;2022-08-25T14:22:30;33.60;51.20
43089;DHT22;28709;52.030;5.652;2022-08-25T14:24:55;33.50;51.90
43089;DHT22;28709;52.030;5.652;2022-08-25T14:27:21;33.40;51.40
43089;DHT22;28709;52.030;5.652;2022-08-25T14:29:47;33.40;51.70
43089;DHT22;28709;52.030;5.652;2022-08-25T14:32:14;33.40;52.20
43089;DHT22;28709;52.030;5.652;2022-08-25T14:34:41;33.40;52.40
43089;DHT22;28709;52.030;5.652;2022-08-25T14:37:16;33.50;52.50
43089;DHT22;28709;52.030;5.652;2022-08-25T14:39:42;33.60;52.50
43089;DHT22;28709;52.030;5.652;2022-08-25T14:42:08;33.60;52.10
43089;DHT22;28709;52.030;5.652;2022-08-25T14:44:34;33.50;51.90
43089;DHT22;28709;52.030;5.652;2022-08-25T14:47:00;33.40;52.20
43089;DHT22;28709;52.030;5.652;2022-08-25T14:49:33;33.20;51.60
43089;DHT22;28709;52.030;5.652;2022-08-25T14:52:13;33.20;51.90
43089;DHT22;28709;52.030;5.652;2022-08-25T14:54:40;33.10;51.80
43089;DHT22;28709;52.030;5.652;2022-08-25T14:57:06;33.10;52.20
43089;DHT22;28709;52.030;5.652;2022-08-25T14:59:32;33.10;52.70
43089;DHT22;28709;52.030;5.652;2022-08-25T15:01:58;33.10;51.80
43089;DHT22;28709;52.030;5.652;2022-08-25T15:04:26;33.00;52.10
43089;DHT22;28709;52.030;5.652;2022-08-25T15:06:56;33.10;52.40
43089;DHT22;28709;52.030;5.652;2022-08-25T15:09:23;33.20;52.50
43089;DHT22;28709;52.030;5.652;2022-08-25T15:11:52;33.20;52.50
43089;DHT22;28709;52.030;5.652;2022-08-25T15:14:22;33.20;52.60
43089;DHT22;28709;52.030;5.652;2022-08-25T15:16:50;33.20;52.60
43089;DHT22;28709;52.030;5.652;2022-08-25T15:19:19;33.20;52.30
43089;DHT22;28709;52.030;5.652;2022-08-25T15:21:46;33.20;52.40
43089;DHT22;28709;52.030;5.652;2022-08-25T15:24:13;33.20;52.30
43089;DHT22;28709;52.030;5.652;2022-08-25T15:26:43;33.20;52.10
43089;DHT22;28709;52.030;5.652;2022-08-25T15:29:11;33.10;52.00
43089;DHT22;28709;52.030;5.652;2022-08-25T15:31:37;33.10;52.30
43089;DHT22;28709;52.030;5.652;2022-08-25T15:34:05;33.10;52.50
43089;DHT22;28709;52.030;5.652;2022-08-25T15:36:32;33.10;52.50
43089;DHT22;28709;52.030;5.652;2022-08-25T15:38:57;33.20;52.30
43089;DHT22;28709;52.030;5.652;2022-08-25T15:41:23;33.20;52.70
43089;DHT22;28709;52.030;5.652;2022-08-25T15:43:49;33.10;52.30
43089;DHT22;28709;52.030;5.652;2022-08-25T15:46:18;33.10;52.30
43089;DHT22;28709;52.030;5.652;2022-08-25T15:48:45;33.10;52.30
43089;DHT22;28709;52.030;5.652;2022-08-25T15:51:11;33.00;52.40
43089;DHT22;28709;52.030;5.652;2022-08-25T15:53:37;33.00;53.00
43089;DHT22;28709;52.030;5.652;2022-08-25T15:56:04;32.80;52.40
43089;DHT22;28709;52.030;5.652;2022-08-25T15:58:30;32.70;52.60
43089;DHT22;28709;52.030;5.652;2022-08-25T16:00:56;32.60;52.70
43089;DHT22;28709;52.030;5.652;2022-08-25T16:03:22;32.60;52.80
43089;DHT22;28709;52.030;5.652;2022-08-25T16:05:47;32.60;53.10
43089;DHT22;28709;52.030;5.652;2022-08-25T16:08:14;32.60;53.30
43089;DHT22;28709;52.030;5.652;2022-08-25T16:10:41;32.60;53.40
43089;DHT22;28709;52.030;5.652;2022-08-25T16:13:09;32.70;53.50
43089;DHT22;28709;52.030;5.652;2022-08-25T16:15:35;32.70;53.70
43089;DHT22;28709;52.030;5.652;2022-08-25T16:18:01;32.60;53.50
43089;DHT22;28709;52.030;5.652;2022-08-25T16:20:29;32.60;53.10
43089;DHT22;28709;52.030;5.652;2022-08-25T16:22:55;32.60;53.30
43089;DHT22;28709;52.030;5.652;2022-08-25T16:25:22;32.50;53.30
43089;DHT22;28709;52.030;5.652;2022-08-25T16:27:48;32.50;53.30
43089;DHT22;28709;52.030;5.652;2022-08-25T16:30:15;32.40;53.40
43089;DHT22;28709;52.030;5.652;2022-08-25T16:32:41;32.40;53.40
43089;DHT22;28709;52.030;5.652;2022-08-25T16:35:07;32.40;53.10
43089;DHT22;28709;52.030;5.652;2022-08-25T16:37:34;32.30;53.00
43089;DHT22;28709;52.030;5.652;2022-08-25T16:40:00;32.30;53.00
43089;DHT22;28709;52.030;5.652;2022-08-25T16:42:26;32.30;52.90
43089;DHT22;28709;52.030;5.652;2022-08-25T16:44:52;32.20;52.90
43089;DHT22;28709;52.030;5.652;2022-08-25T16:47:18;32.20;52.80
43089;DHT22;28709;52.030;5.652;2022-08-25T16:49:44;32.20;53.00
43089;DHT22;28709;52.030;5.652;2022-08-25T16:52:10;32.10;53.10
43089;DHT22;28709;52.030;5.652;2022-08-25T16:54:55;32.10;53.20
43089;DHT22;28709;52.030;5.652;2022-08-25T16:57:42;32.00;53.20
43089;DHT22;28709;52.030;5.652;2022-08-25T17:00:11;32.00;53.30
43089;DHT22;28709;52.030;5.652;2022-08-25T17:02:40;32.00;53.50
43089;DHT22;28709;52.030;5.652;2022-08-25T17:05:08;31.90;53.70
43089;DHT22;28709;52.030;5.652;2022-08-25T17:07:34;31.80;53.70
43089;DHT22;28709;52.030;5.652;2022-08-25T17:10:01;31.90;53.80
43089;DHT22;28709;52.030;5.652;2022-08-25T17:12:27;31.80;53.80
43089;DHT22;28709;52.030;5.652;2022-08-25T17:14:53;31.80;54.00
43089;DHT22;28709;52.030;5.652;2022-08-25T17:17:19;31.80;54.10
43089;DHT22;28709;52.030;5.652;2022-08-25T17:19:45;31.80;54.30
43089;DHT22;28709;52.030;5.652;2022-08-25T17:22:11;31.70;54.30
43089;DHT22;28709;52.030;5.652;2022-08-25T17:24:44;31.70;54.50
43089;DHT22;28709;52.030;5.652;2022-08-25T17:27:10;31.60;54.60
43089;DHT22;28709;52.030;5.652;2022-08-25T17:29:36;31.60;54.70
43089;DHT22;28709;52.030;5.652;2022-08-25T17:32:03;31.50;54.80
43089;DHT22;28709;52.030;5.652;2022-08-25T17:34:29;31.50;55.00
43089;DHT22;28709;52.030;5.652;2022-08-25T17:36:56;31.40;55.40
43089;DHT22;28709;52.030;5.652;2022-08-25T17:39:22;31.40;55.10
43089;DHT22;28709;52.030;5.652;2022-08-25T17:41:48;31.40;55.30
43089;DHT22;28709;52.030;5.652;2022-08-25T17:44:14;31.30;55.30
43089;DHT22;28709;52.030;5.652;2022-08-25T17:46:40;31.30;55.60
43089;DHT22;28709;52.030;5.652;2022-08-25T17:49:06;31.10;55.70
43089;DHT22;28709;52.030;5.652;2022-08-25T17:51:33;31.10;56.00